Talleyrand, Iowa
Current Conditions -  °F | °C
As of 11:35 AM on Wednesday 26 Nov 2014 (Local Time) from KAWG Reporting Station
Unknown Precip Unknown Precip  
Wind Chill: 20°   Ceiling: Unl
Heat Index: 30°   Visibility: 2mi
Dew Point: 30°   Wind: 13mph
Humidity: 100%   Direction: 100°E
Pressure: 30"   Gusts: NA
Location:  41.3169°N, 91.9953°W
Report Text: KAWG 261735Z AUTO 10011KT 2SM -UP CLR M01/M01 A3000 RMK AO2
Loading
Personal Weather Stations






























Interactive Weather Map New forecast layout! Learn more

10-Day Weather Forecast

Advertisements
Track Severe Weather on mobile